Breighton, United Kingdom
Current Conditions -  °F | °C
As of 11:50 PM on Wednesday 26 Nov 2014 (Local Time) from EGXV Reporting Station
Moderate Fog Moderate Fog  
Wind Chill: 46°   Ceiling: 200
Heat Index: 46°   Visibility: 0.25mi
Dew Point: 46°   Wind: 2mph
Humidity: 100%   Direction: 320°NW
Pressure: 29.74"   Gusts: NA
Location:  53.8°N, 0.92°W
Report Text: EGXV 262350Z AUTO 32002KT 0400 FG OVC002/// 08/08 Q1007
Loading
Personal Weather Stations






























Interactive Weather Map New forecast layout! Learn more

10-Day Weather Forecast

Advertisements
Track Severe Weather on mobile